createdAt,value
2022-11-08T05:36:05.604Z,0.1
2022-11-08T05:38:01.180Z,0.2
2022-11-08T05:40:06.316Z,0.3
2022-11-08T05:42:01.104Z,0.4
2022-11-08T05:43:01.100Z,0.5
2022-11-08T05:44:01.111Z,0.6
2022-11-08T05:45:05.225Z,0.7
2022-11-08T05:46:01.098Z,0.9
2022-11-08T05:47:01.104Z,1.0
2022-11-08T05:48:01.113Z,1.1
2022-11-08T05:49:02.053Z,1.3
2022-11-08T05:50:01.310Z,1.5
2022-11-08T05:51:01.108Z,1.9
2022-11-08T05:52:01.128Z,2.1
2022-11-08T05:53:01.110Z,2.4
2022-11-08T05:54:01.612Z,2.8
2022-11-08T05:55:01.335Z,3.2
2022-11-08T05:56:01.106Z,3.9
2022-11-08T05:57:01.112Z,4.5
2022-11-08T05:58:01.293Z,5.2
2022-11-08T05:59:01.178Z,6.2
2022-11-08T06:00:02.405Z,7.2
2022-11-08T06:01:01.115Z,8.8
2022-11-08T06:02:01.133Z,10.4
2022-11-08T06:03:01.256Z,12.0
2022-11-08T06:04:01.485Z,14.4
2022-11-08T06:05:01.308Z,16.8
2022-11-08T06:06:01.105Z,20.5
2022-11-08T06:07:01.106Z,24.1
2022-11-08T06:08:01.417Z,27.8
2022-11-08T06:09:01.693Z,33.3
2022-11-08T06:10:01.309Z,38.9
2022-11-08T06:11:01.105Z,46.7
2022-11-08T06:12:01.109Z,54.6
2022-11-08T06:13:01.136Z,62.5
2022-11-08T06:14:01.118Z,74.1
2022-11-08T06:15:01.705Z,85.8
2022-11-08T06:16:01.113Z,102.7
2022-11-08T06:17:01.115Z,119.7
2022-11-08T06:18:01.120Z,136.6
2022-11-08T06:19:01.125Z,162.1
2022-11-08T06:20:01.653Z,187.5
2022-11-08T06:21:01.411Z,224.1
2022-11-08T06:22:01.112Z,260.7
2022-11-08T06:23:01.117Z,297.3
2022-11-08T06:24:01.952Z,347.5
2022-11-08T06:25:08.313Z,397.6
2022-11-08T06:26:01.117Z,460.5
2022-11-08T06:27:01.115Z,523.5
2022-11-08T06:28:01.113Z,586.4
2022-11-08T06:29:01.130Z,652.4
2022-11-08T06:30:01.350Z,718.4
2022-11-08T06:31:01.152Z,786.9
2022-11-08T06:32:01.133Z,855.3
2022-11-08T06:33:01.109Z,923.8
2022-11-08T06:34:07.241Z,1001.3
2022-11-08T06:35:01.317Z,1078.7
2022-11-08T06:36:01.382Z,1169.4
2022-11-08T06:37:01.122Z,1260.1
2022-11-08T06:38:05.636Z,1350.7
2022-11-08T06:39:01.127Z,1455.9
2022-11-08T06:40:01.912Z,1561.0
2022-11-08T06:41:01.120Z,1689.0
2022-11-08T06:42:01.127Z,1817.0
2022-11-08T06:44:01.656Z,1988.2
2022-11-08T06:45:01.361Z,2152.1
2022-11-08T06:46:01.100Z,2358.4
2022-11-08T06:47:01.381Z,2556.3
2022-11-08T06:48:01.102Z,2754.3
2022-11-08T06:49:01.109Z,2991.1
2022-11-08T06:50:01.326Z,3209.5
2022-11-08T06:51:01.104Z,3480.1
2022-11-08T06:52:01.102Z,3724.9
2022-11-08T06:53:01.106Z,3969.8
2022-11-08T06:54:01.113Z,4287.9
2022-11-08T06:55:01.314Z,4575.9
2022-11-08T06:56:01.120Z,4939.3
2022-11-08T06:57:01.103Z,5264.5
2022-11-08T06:58:01.102Z,5589.6
2022-11-08T06:59:01.745Z,5920.5
2022-11-08T07:00:03.371Z,6251.5
2022-11-08T07:01:01.110Z,6599.5
2022-11-08T07:02:01.186Z,6947.5
2022-11-08T07:03:01.183Z,7295.5
2022-11-08T07:04:01.123Z,7636.9
2022-11-08T07:05:01.320Z,7978.3
2022-11-08T07:06:01.107Z,8315.1
2022-11-08T07:07:01.101Z,8651.9
2022-11-08T07:08:01.152Z,8988.7
2022-11-08T07:09:01.119Z,9287.3
2022-11-08T07:10:03.715Z,9585.9
2022-11-08T07:11:01.111Z,9875.5
2022-11-08T07:12:01.132Z,10165.2
2022-11-08T07:13:01.166Z,10454.9
2022-11-08T07:14:02.563Z,10734.5
2022-11-08T07:15:01.315Z,11014.1
2022-11-08T07:16:01.123Z,11308.0
2022-11-08T07:17:01.109Z,11601.9
2022-11-08T07:18:01.151Z,11895.9
2022-11-08T07:19:01.124Z,12237.6
2022-11-08T07:20:01.327Z,12579.3
2022-11-08T07:21:01.115Z,12953.5
2022-11-08T07:22:01.115Z,13327.7
2022-11-08T07:23:01.118Z,13701.9
2022-11-08T07:24:01.124Z,14125.1
2022-11-08T07:25:01.328Z,14548.3
2022-11-08T07:26:01.113Z,14986.7
2022-11-08T07:27:01.113Z,15425.0
2022-11-08T07:28:01.142Z,15863.3
2022-11-08T07:29:06.749Z,16331.7
2022-11-08T07:30:01.361Z,16800.0
2022-11-08T07:31:01.122Z,17251.6
2022-11-08T07:32:01.122Z,17703.2
2022-11-08T07:33:01.111Z,18154.8
2022-11-08T07:34:01.121Z,18604.4
2022-11-08T07:35:01.345Z,19054.0
2022-11-08T07:36:01.114Z,19510.7
2022-11-08T07:37:01.117Z,19967.3
2022-11-08T07:38:01.156Z,20424.0
2022-11-08T07:40:01.358Z,20785.3
2022-11-08T07:41:01.104Z,21164.2
2022-11-08T07:42:01.103Z,21461.5
2022-11-08T07:43:16.489Z,21758.9
2022-11-08T07:44:01.120Z,22019.9
2022-11-08T07:45:01.355Z,22212.1
2022-11-08T07:46:01.128Z,22528.0
2022-11-08T07:47:01.104Z,22786.9
2022-11-08T07:48:01.110Z,23045.9
2022-11-08T07:49:01.117Z,23361.5
2022-11-08T07:50:01.347Z,23599.0
2022-11-08T07:51:01.108Z,23864.7
2022-11-08T07:52:01.102Z,24043.2
2022-11-08T07:53:01.177Z,24221.7
2022-11-08T07:54:04.049Z,24453.5
2022-11-08T07:55:01.330Z,24696.7
2022-11-08T07:56:01.102Z,24957.3
2022-11-08T07:57:01.115Z,25218.0
2022-11-08T07:58:01.106Z,25478.7
2022-11-08T07:59:01.117Z,25853.8
2022-11-08T08:00:07.416Z,26228.9
2022-11-08T08:01:02.133Z,26651.7
2022-11-08T08:02:01.126Z,27074.4
2022-11-08T08:03:01.255Z,27497.1
2022-11-08T08:04:02.775Z,28106.4
2022-11-08T08:05:01.322Z,28715.7
2022-11-08T08:06:01.731Z,29562.2
2022-11-08T08:07:01.113Z,30408.7
2022-11-08T08:08:01.111Z,31255.3
2022-11-08T08:09:01.121Z,32269.6
2022-11-08T08:10:16.127Z,33283.9
2022-11-08T08:11:01.248Z,34298.1
2022-11-08T08:12:01.114Z,35312.2
2022-11-08T08:13:01.114Z,36326.3
2022-11-08T08:14:01.118Z,37115.2
2022-11-08T08:15:01.440Z,37904.1
2022-11-08T08:16:01.342Z,38315.0
2022-11-08T08:17:01.113Z,38725.9
2022-11-08T08:18:01.113Z,39136.9
2022-11-08T08:19:01.762Z,39238.9
2022-11-08T08:20:01.140Z,39340.9
2022-11-08T08:21:01.322Z,39384.9
2022-11-08T08:22:01.116Z,39428.9
2022-11-08T08:23:01.117Z,39472.9
2022-11-08T08:24:01.121Z,39411.5
2022-11-08T08:25:03.177Z,39350.2
2022-11-08T08:26:01.325Z,39290.3
2022-11-08T08:27:01.393Z,39230.5
2022-11-08T08:28:01.132Z,39170.6
2022-11-08T08:29:01.126Z,39278.0
2022-11-08T08:30:01.132Z,39385.4
2022-11-08T08:31:01.620Z,39682.4
2022-11-08T08:32:01.141Z,39979.4
2022-11-08T08:33:22.286Z,40276.4
2022-11-08T08:34:01.792Z,40693.4
2022-11-08T08:35:01.180Z,41110.4
2022-11-08T08:36:01.572Z,41362.1
2022-11-08T08:37:01.213Z,41613.9
2022-11-08T08:38:01.121Z,41865.6
2022-11-08T08:39:01.390Z,42096.7
2022-11-08T08:40:01.147Z,42327.9
2022-11-08T08:41:01.318Z,43058.0
2022-11-08T08:42:01.116Z,43788.1
2022-11-08T08:43:01.139Z,44518.3
2022-11-08T08:44:01.122Z,46102.1
2022-11-08T08:45:08.510Z,47686.0
2022-11-08T08:47:01.562Z,49286.8
2022-11-08T08:48:01.211Z,50887.6
2022-11-08T08:49:06.731Z,52488.4
2022-11-08T08:50:01.119Z,54034.9
2022-11-08T08:51:01.108Z,55581.5
2022-11-08T08:52:01.317Z,57085.9
2022-11-08T08:53:01.109Z,58590.3
2022-11-08T08:54:03.033Z,59922.3
2022-11-08T08:55:01.155Z,61159.3
2022-11-08T08:56:01.111Z,62568.5
2022-11-08T08:57:01.312Z,63442.5
2022-11-08T08:58:01.127Z,64316.4
2022-11-08T09:26:01.098Z,64629.5
2022-11-08T09:27:01.405Z,64931.3
2022-11-08T09:28:01.094Z,65082.3
2022-11-08T09:29:01.099Z,65172.8
2022-11-08T09:31:01.098Z,65276.3
2022-11-08T09:32:01.093Z,65308.6
2022-11-08T09:33:02.509Z,65333.8
2022-11-08T09:34:01.389Z,65353.9
2022-11-08T09:35:01.318Z,65370.4
2022-11-08T09:36:01.097Z,65384.1
2022-11-08T09:37:01.097Z,65395.7
2022-11-08T09:38:01.094Z,65405.6
2022-11-08T09:39:01.134Z,65414.3
2022-11-08T09:40:01.321Z,65535.0
2022-11-08T09:45:02.094Z,65535.0
2022-11-08T10:00:02.848Z,65535.0
2022-11-08T10:15:02.368Z,65535.0
2022-11-08T10:45:02.537Z,65535.0
2022-11-08T11:15:03.430Z,65535.0
2022-11-08T12:15:02.475Z,65535.0
2022-11-08T13:00:08.905Z,65535.0
2022-11-08T13:15:02.116Z,65535.0
2022-11-08T13:27:01.503Z,65388.1
2022-11-08T13:28:01.133Z,65241.3
2022-11-08T13:29:01.100Z,65019.9
2022-11-08T13:31:01.104Z,64577.1
2022-11-08T13:32:01.554Z,64473.3
2022-11-08T13:33:01.156Z,64369.5
2022-11-08T13:34:01.106Z,64344.4
2022-11-08T13:36:01.102Z,64294.3
2022-11-08T13:39:01.495Z,64095.5
2022-11-08T13:40:01.137Z,63896.7
2022-11-08T13:41:01.144Z,63697.9
2022-11-08T13:42:01.105Z,63536.5
2022-11-08T13:43:01.160Z,63375.2
2022-11-08T13:44:01.561Z,63111.5
2022-11-08T13:46:01.167Z,62584.0
2022-11-08T13:47:01.127Z,61970.7
2022-11-08T13:48:01.443Z,61357.3
2022-11-08T13:49:01.330Z,60698.1
2022-11-08T13:50:01.119Z,60038.9
2022-11-08T13:51:01.107Z,59379.7
2022-11-08T13:52:01.104Z,58571.9
2022-11-08T13:53:01.104Z,57764.1
2022-11-08T13:54:01.568Z,56977.9
2022-11-08T13:55:01.133Z,56191.6
2022-11-08T13:56:01.163Z,55405.3
2022-11-08T13:57:01.247Z,54649.7
2022-11-08T13:58:01.128Z,53894.1
2022-11-08T13:59:01.305Z,53170.2
2022-11-08T14:00:01.734Z,52446.3
2022-11-08T14:01:01.280Z,51722.3
2022-11-08T14:02:01.328Z,50725.3
2022-11-08T14:03:01.261Z,49728.2
2022-11-08T14:04:01.306Z,48100.3
2022-11-08T14:05:01.147Z,46472.3
2022-11-08T14:06:01.114Z,44844.4
2022-11-08T14:07:01.434Z,43403.9
2022-11-08T14:08:01.147Z,41963.3
2022-11-08T14:09:01.332Z,40762.3
2022-11-08T14:10:01.119Z,39561.3
2022-11-08T14:11:01.167Z,38360.3
2022-11-08T14:12:01.335Z,36984.2
2022-11-08T14:13:01.194Z,35608.1
2022-11-08T14:14:02.339Z,34037.2
2022-11-08T14:15:01.747Z,32466.3
2022-11-08T14:16:01.114Z,30895.5
2022-11-08T14:17:01.495Z,29906.7
2022-11-08T14:18:01.342Z,28917.9
2022-11-08T14:19:01.642Z,28517.3
2022-11-08T14:20:01.198Z,28116.8
2022-11-08T14:22:01.433Z,27528.4
2022-11-08T14:23:01.370Z,26876.1
2022-11-08T14:24:01.314Z,26050.5
2022-11-08T14:25:02.271Z,25162.7
2022-11-08T14:26:01.116Z,24274.8
2022-11-08T14:27:01.634Z,23362.1
2022-11-08T14:28:01.256Z,22703.3
2022-11-08T14:29:01.350Z,21878.2
2022-11-08T14:30:01.120Z,21393.1
2022-11-08T14:31:02.000Z,20907.9
2022-11-08T14:32:01.598Z,20485.1
2022-11-08T14:33:01.136Z,19985.4
2022-11-08T14:34:01.316Z,19481.8
2022-11-08T14:35:01.117Z,18987.9
2022-11-08T14:36:01.145Z,18494.1
2022-11-08T14:37:01.880Z,18202.7
2022-11-08T14:38:01.116Z,17911.4
2022-11-08T14:39:01.391Z,17599.2
2022-11-08T14:40:01.117Z,17287.0
2022-11-08T14:41:01.795Z,16974.8
2022-11-08T14:42:02.209Z,16564.1
2022-11-08T14:43:01.177Z,16153.3
2022-11-08T14:44:01.536Z,15732.1
2022-11-08T14:45:02.132Z,15310.9
2022-11-08T14:46:01.890Z,14889.7
2022-11-08T14:47:01.408Z,14326.3
2022-11-08T14:48:01.110Z,13762.8
2022-11-08T14:49:01.319Z,13262.6
2022-11-08T14:50:01.172Z,12762.4
2022-11-08T14:51:01.190Z,12262.2
2022-11-08T14:53:01.175Z,11753.9
2022-11-08T14:54:01.335Z,11199.8
2022-11-08T14:55:01.094Z,10839.9
2022-11-08T14:56:01.115Z,10480.1
2022-11-08T14:57:01.109Z,10077.4
2022-11-08T14:58:02.124Z,9798.1
2022-11-08T14:59:01.303Z,9460.7
2022-11-08T15:00:01.105Z,9300.2
2022-11-08T15:01:01.169Z,9139.7
2022-11-08T15:02:02.430Z,8903.6
2022-11-08T15:03:01.127Z,8747.5
2022-11-08T15:04:01.376Z,8541.3
2022-11-08T15:05:01.103Z,8275.7
2022-11-08T15:06:01.192Z,8010.1
2022-11-08T15:07:01.183Z,7776.6
2022-11-08T15:08:01.098Z,7536.6
2022-11-08T15:09:01.408Z,7296.1
2022-11-08T15:10:01.168Z,7055.7
2022-11-08T15:11:01.101Z,6815.2
2022-11-08T15:12:01.117Z,6561.4
2022-11-08T15:13:01.180Z,6307.6
2022-11-08T15:14:01.304Z,6082.6
2022-11-08T15:15:01.100Z,5857.6
2022-11-08T15:16:01.096Z,5632.6
2022-11-08T15:17:04.733Z,5462.9
2022-11-08T15:18:01.096Z,5293.3
2022-11-08T15:19:01.330Z,5119.5
2022-11-08T15:20:01.107Z,4945.7
2022-11-08T15:21:01.107Z,4771.9
2022-11-08T15:22:01.110Z,4515.6
2022-11-08T15:23:01.131Z,4259.3
2022-11-08T15:24:01.357Z,4013.2
2022-11-08T15:25:01.115Z,3767.1
2022-11-08T15:26:01.113Z,3520.9
2022-11-08T15:27:01.124Z,3305.6
2022-11-08T15:28:01.350Z,3090.3
2022-11-08T15:29:01.300Z,2882.4
2022-11-08T15:30:01.111Z,2674.5
2022-11-08T15:31:01.103Z,2466.7
2022-11-08T15:32:03.017Z,2262.6
2022-11-08T15:33:01.207Z,2058.5
2022-11-08T15:34:01.594Z,1898.3
2022-11-08T15:35:01.122Z,1738.1
2022-11-08T15:36:01.098Z,1577.9
2022-11-08T15:37:01.956Z,1459.3
2022-11-08T15:38:01.102Z,1340.6
2022-11-08T15:39:01.357Z,1251.3
2022-11-08T15:40:01.103Z,1162.1
2022-11-08T15:41:01.369Z,1072.8
2022-11-08T15:42:01.111Z,1003.1
2022-11-08T15:43:01.126Z,933.5
2022-11-08T15:44:01.308Z,878.1
2022-11-08T15:45:01.098Z,822.7
2022-11-08T15:46:01.100Z,767.3
2022-11-08T15:47:01.126Z,719.9
2022-11-08T15:48:01.097Z,672.6
2022-11-08T15:49:01.363Z,628.1
2022-11-08T15:50:01.102Z,583.5
2022-11-08T15:51:01.152Z,539.0
2022-11-08T15:52:01.669Z,497.7
2022-11-08T15:53:01.103Z,456.3
2022-11-08T15:54:01.570Z,417.9
2022-11-08T15:55:01.104Z,379.5
2022-11-08T15:56:01.102Z,341.1
2022-11-08T15:57:01.686Z,305.9
2022-11-08T15:58:01.104Z,270.6
2022-11-08T15:59:01.307Z,240.8
2022-11-08T16:00:01.369Z,211.0
2022-11-08T16:01:01.156Z,181.2
2022-11-08T16:02:01.182Z,158.4
2022-11-08T16:03:01.099Z,135.6
2022-11-08T16:04:06.357Z,119.5
2022-11-08T16:05:01.132Z,103.3
2022-11-08T16:06:06.162Z,87.2
2022-11-08T16:07:02.597Z,76.1
2022-11-08T16:08:01.109Z,64.9
2022-11-08T16:09:01.313Z,57.1
2022-11-08T16:10:01.114Z,49.2
2022-11-08T16:11:01.112Z,41.3
2022-11-08T16:12:01.113Z,35.7
2022-11-08T16:13:01.249Z,30.1
2022-11-08T16:14:01.347Z,26.3
2022-11-08T16:15:01.113Z,22.5
2022-11-08T16:16:01.107Z,18.7
2022-11-08T16:17:01.141Z,16.1
2022-11-08T16:18:01.112Z,13.5
2022-11-08T16:19:01.311Z,11.7
2022-11-08T16:20:01.197Z,9.9
2022-11-08T16:21:01.109Z,8.1
2022-11-08T16:22:01.812Z,6.9
2022-11-08T16:23:01.107Z,5.7
2022-11-08T16:24:01.354Z,4.9
2022-11-08T16:25:01.165Z,4.1
2022-11-08T16:26:01.106Z,3.3
2022-11-08T16:27:01.181Z,2.9
2022-11-08T16:28:03.674Z,2.4
2022-11-08T16:29:01.481Z,2.1
2022-11-08T16:30:01.268Z,1.9
2022-11-08T16:31:01.114Z,1.6
2022-11-08T16:32:01.121Z,1.4
2022-11-08T16:33:01.149Z,1.2
2022-11-08T16:34:01.447Z,1.1
2022-11-08T16:35:01.127Z,0.9
2022-11-08T16:36:01.176Z,0.8
2022-11-08T16:37:01.684Z,0.7
2022-11-08T16:38:02.170Z,0.5
2022-11-08T16:40:01.325Z,0.4
2022-11-08T16:41:01.174Z,0.3
2022-11-08T16:43:01.306Z,0.2
2022-11-08T16:44:01.132Z,0.1
2022-11-08T16:45:01.460Z,0.1
2022-11-08T18:47:02.077Z,0.1
2022-11-08T18:49:01.115Z,0.2
2022-11-08T18:50:01.123Z,0.3
2022-11-08T19:00:02.888Z,0.3
2022-11-08T19:03:01.139Z,0.2
2022-11-08T19:04:01.113Z,0.1
2022-11-08T19:24:01.491Z,0.1
2022-11-08T19:26:01.118Z,0.2
2022-11-08T19:27:03.023Z,0.3
2022-11-08T19:29:01.309Z,0.4
2022-11-08T19:30:01.107Z,0.5
2022-11-08T19:32:01.127Z,0.6
2022-11-08T19:33:01.107Z,0.7
2022-11-08T19:35:01.312Z,0.8
2022-11-08T19:36:01.142Z,0.9
2022-11-08T19:38:01.105Z,1.0
2022-11-08T19:42:01.834Z,0.9
2022-11-08T19:45:01.182Z,0.9
2022-11-08T19:52:01.460Z,0.8
2022-11-08T19:53:05.187Z,0.7
2022-11-08T19:57:07.132Z,0.8
2022-11-08T19:58:02.212Z,0.9
2022-11-08T20:00:01.113Z,0.9
2022-11-08T20:08:01.116Z,1.0
2022-11-08T20:15:01.196Z,1.0
2022-11-08T20:30:01.384Z,1.0
2022-11-08T20:45:01.962Z,1.0
2022-11-08T21:00:11.792Z,1.0
2022-11-08T21:15:01.527Z,1.0
2022-11-08T21:30:01.397Z,1.0
2022-11-08T21:45:01.417Z,1.0
2022-11-08T22:00:03.326Z,1.0
2022-11-08T22:35:01.549Z,1.0
2022-11-08T22:45:01.095Z,1.0
2022-11-08T22:52:00.461Z,1.1
2022-11-08T22:54:00.305Z,1.2
2022-11-08T22:55:00.253Z,1.3
2022-11-08T23:00:01.532Z,1.3
2022-11-08T23:02:00.244Z,1.4
2022-11-08T23:03:00.253Z,1.5
2022-11-08T23:05:00.871Z,1.6
2022-11-08T23:06:00.249Z,1.7
2022-11-08T23:13:00.607Z,1.8
2022-11-08T23:14:00.241Z,1.9
2022-11-08T23:15:00.812Z,1.9
2022-11-08T23:16:00.246Z,2.0
2022-11-08T23:30:01.046Z,2.0
